sensor_id;sensor_type;location;lat;lon;timestamp;P1;durP1;ratioP1;P2;durP2;ratioP2
28459;SDS011;32528;45.712;9.192;2023-02-01T00:01:56;51.45;;;16.70;;
28459;SDS011;32528;45.712;9.192;2023-02-01T00:03:57;30.85;;;15.57;;
28459;SDS011;32528;45.712;9.192;2023-02-01T00:05:58;25.15;;;13.95;;
28459;SDS011;32528;45.712;9.192;2023-02-01T00:07:59;32.13;;;15.23;;
28459;SDS011;32528;45.712;9.192;2023-02-01T00:10:00;32.15;;;15.75;;
28459;SDS011;32528;45.712;9.192;2023-02-01T00:12:01;31.08;;;15.05;;
28459;SDS011;32528;45.712;9.192;2023-02-01T00:14:03;27.27;;;14.82;;
28459;SDS011;32528;45.712;9.192;2023-02-01T00:16:11;33.92;;;15.48;;
28459;SDS011;32528;45.712;9.192;2023-02-01T00:18:16;35.13;;;16.90;;
28459;SDS011;32528;45.712;9.192;2023-02-01T00:20:17;25.90;;;14.82;;
28459;SDS011;32528;45.712;9.192;2023-02-01T00:22:17;37.38;;;16.48;;
28459;SDS011;32528;45.712;9.192;2023-02-01T00:24:18;28.70;;;12.95;;
28459;SDS011;32528;45.712;9.192;2023-02-01T00:26:21;31.15;;;16.23;;
28459;SDS011;32528;45.712;9.192;2023-02-01T00:28:27;28.17;;;16.15;;
28459;SDS011;32528;45.712;9.192;2023-02-01T00:30:28;27.90;;;16.02;;
28459;SDS011;32528;45.712;9.192;2023-02-01T00:32:29;38.67;;;15.70;;
28459;SDS011;32528;45.712;9.192;2023-02-01T00:34:31;35.83;;;15.50;;
28459;SDS011;32528;45.712;9.192;2023-02-01T00:36:33;33.13;;;16.48;;
28459;SDS011;32528;45.712;9.192;2023-02-01T00:38:36;34.80;;;15.57;;
28459;SDS011;32528;45.712;9.192;2023-02-01T00:40:39;24.08;;;14.43;;
28459;SDS011;32528;45.712;9.192;2023-02-01T00:42:40;27.25;;;14.23;;
28459;SDS011;32528;45.712;9.192;2023-02-01T00:44:41;28.73;;;14.70;;
28459;SDS011;32528;45.712;9.192;2023-02-01T00:46:42;28.77;;;14.13;;
28459;SDS011;32528;45.712;9.192;2023-02-01T00:48:45;28.27;;;15.00;;
28459;SDS011;32528;45.712;9.192;2023-02-01T00:50:45;30.90;;;14.65;;
28459;SDS011;32528;45.712;9.192;2023-02-01T00:52:46;34.45;;;14.20;;
28459;SDS011;32528;45.712;9.192;2023-02-01T00:54:47;25.92;;;14.07;;
28459;SDS011;32528;45.712;9.192;2023-02-01T00:56:48;33.40;;;15.75;;
28459;SDS011;32528;45.712;9.192;2023-02-01T00:58:49;30.42;;;13.77;;
28459;SDS011;32528;45.712;9.192;2023-02-01T01:00:49;24.58;;;12.73;;
28459;SDS011;32528;45.712;9.192;2023-02-01T01:02:50;29.38;;;12.60;;
28459;SDS011;32528;45.712;9.192;2023-02-01T01:04:51;30.30;;;13.20;;
28459;SDS011;32528;45.712;9.192;2023-02-01T01:06:52;28.23;;;13.57;;
28459;SDS011;32528;45.712;9.192;2023-02-01T01:08:53;23.17;;;12.15;;
28459;SDS011;32528;45.712;9.192;2023-02-01T01:10:55;24.80;;;12.32;;
28459;SDS011;32528;45.712;9.192;2023-02-01T01:12:57;32.78;;;12.63;;
28459;SDS011;32528;45.712;9.192;2023-02-01T01:14:58;28.08;;;14.77;;
28459;SDS011;32528;45.712;9.192;2023-02-01T01:16:59;25.20;;;13.10;;
28459;SDS011;32528;45.712;9.192;2023-02-01T01:19:00;22.58;;;12.00;;
28459;SDS011;32528;45.712;9.192;2023-02-01T01:21:01;24.17;;;11.60;;
28459;SDS011;32528;45.712;9.192;2023-02-01T01:23:06;23.98;;;12.20;;
28459;SDS011;32528;45.712;9.192;2023-02-01T01:25:07;24.77;;;11.20;;
28459;SDS011;32528;45.712;9.192;2023-02-01T01:27:08;22.58;;;12.57;;
28459;SDS011;32528;45.712;9.192;2023-02-01T01:29:09;29.13;;;11.18;;
28459;SDS011;32528;45.712;9.192;2023-02-01T01:31:11;23.60;;;11.38;;
28459;SDS011;32528;45.712;9.192;2023-02-01T01:33:13;20.67;;;10.48;;
28459;SDS011;32528;45.712;9.192;2023-02-01T01:35:14;19.58;;;10.63;;
28459;SDS011;32528;45.712;9.192;2023-02-01T01:37:16;20.98;;;11.35;;
28459;SDS011;32528;45.712;9.192;2023-02-01T01:39:17;25.25;;;12.38;;
28459;SDS011;32528;45.712;9.192;2023-02-01T01:41:19;22.02;;;10.88;;
28459;SDS011;32528;45.712;9.192;2023-02-01T01:43:44;18.17;;;10.02;;
28459;SDS011;32528;45.712;9.192;2023-02-01T01:45:51;21.98;;;10.50;;
28459;SDS011;32528;45.712;9.192;2023-02-01T01:47:53;26.15;;;12.05;;
28459;SDS011;32528;45.712;9.192;2023-02-01T01:50:00;17.35;;;10.98;;
28459;SDS011;32528;45.712;9.192;2023-02-01T01:52:02;21.90;;;10.85;;
28459;SDS011;32528;45.712;9.192;2023-02-01T01:54:08;24.58;;;12.10;;
28459;SDS011;32528;45.712;9.192;2023-02-01T01:56:31;23.25;;;11.70;;
28459;SDS011;32528;45.712;9.192;2023-02-01T01:58:34;23.45;;;9.48;;
28459;SDS011;32528;45.712;9.192;2023-02-01T02:00:35;21.30;;;11.82;;
28459;SDS011;32528;45.712;9.192;2023-02-01T02:02:37;22.92;;;11.45;;
28459;SDS011;32528;45.712;9.192;2023-02-01T02:04:40;21.58;;;11.05;;
28459;SDS011;32528;45.712;9.192;2023-02-01T02:09:02;20.13;;;10.90;;
28459;SDS011;32528;45.712;9.192;2023-02-01T02:11:04;24.50;;;10.82;;
28459;SDS011;32528;45.712;9.192;2023-02-01T02:13:04;16.80;;;9.63;;
28459;SDS011;32528;45.712;9.192;2023-02-01T02:15:09;18.88;;;10.80;;
28459;SDS011;32528;45.712;9.192;2023-02-01T02:37:46;20.10;;;11.32;;
28459;SDS011;32528;45.712;9.192;2023-02-01T02:40:21;19.20;;;10.23;;
28459;SDS011;32528;45.712;9.192;2023-02-01T02:42:47;26.45;;;10.30;;
28459;SDS011;32528;45.712;9.192;2023-02-01T02:45:30;24.75;;;10.50;;
28459;SDS011;32528;45.712;9.192;2023-02-01T02:47:56;35.70;;;10.45;;
28459;SDS011;32528;45.712;9.192;2023-02-01T02:52:48;30.05;;;10.60;;
28459;SDS011;32528;45.712;9.192;2023-02-01T02:55:14;15.75;;;9.20;;
28459;SDS011;32528;45.712;9.192;2023-02-01T02:57:18;18.08;;;9.95;;
28459;SDS011;32528;45.712;9.192;2023-02-01T02:59:40;18.25;;;9.93;;
28459;SDS011;32528;45.712;9.192;2023-02-01T03:02:05;22.83;;;10.38;;
28459;SDS011;32528;45.712;9.192;2023-02-01T03:04:25;19.70;;;8.20;;
28459;SDS011;32528;45.712;9.192;2023-02-01T03:06:27;15.10;;;8.77;;
28459;SDS011;32528;45.712;9.192;2023-02-01T03:08:29;18.27;;;9.50;;
28459;SDS011;32528;45.712;9.192;2023-02-01T03:12:37;19.33;;;10.07;;
28459;SDS011;32528;45.712;9.192;2023-02-01T03:15:00;18.42;;;8.57;;
28459;SDS011;32528;45.712;9.192;2023-02-01T03:17:11;15.57;;;9.10;;
28459;SDS011;32528;45.712;9.192;2023-02-01T03:19:24;21.25;;;8.38;;
28459;SDS011;32528;45.712;9.192;2023-02-01T03:21:37;18.13;;;8.77;;
28459;SDS011;32528;45.712;9.192;2023-02-01T03:23:45;20.45;;;9.27;;
28459;SDS011;32528;45.712;9.192;2023-02-01T03:25:48;16.60;;;8.63;;
28459;SDS011;32528;45.712;9.192;2023-02-01T03:27:57;19.58;;;10.45;;
28459;SDS011;32528;45.712;9.192;2023-02-01T03:32:27;19.20;;;9.75;;
28459;SDS011;32528;45.712;9.192;2023-02-01T03:34:28;16.17;;;8.77;;
28459;SDS011;32528;45.712;9.192;2023-02-01T03:36:30;16.30;;;8.55;;
28459;SDS011;32528;45.712;9.192;2023-02-01T03:38:41;20.98;;;9.95;;
28459;SDS011;32528;45.712;9.192;2023-02-01T03:40:53;22.42;;;9.38;;
28459;SDS011;32528;45.712;9.192;2023-02-01T03:43:01;19.08;;;10.77;;
28459;SDS011;32528;45.712;9.192;2023-02-01T03:45:10;18.20;;;9.65;;
28459;SDS011;32528;45.712;9.192;2023-02-01T03:47:15;21.48;;;9.65;;
28459;SDS011;32528;45.712;9.192;2023-02-01T03:49:29;21.27;;;11.60;;
28459;SDS011;32528;45.712;9.192;2023-02-01T03:51:38;24.23;;;11.13;;
28459;SDS011;32528;45.712;9.192;2023-02-01T03:53:41;17.83;;;10.15;;
28459;SDS011;32528;45.712;9.192;2023-02-01T03:55:46;16.52;;;9.18;;
28459;SDS011;32528;45.712;9.192;2023-02-01T04:00:22;18.73;;;8.35;;
28459;SDS011;32528;45.712;9.192;2023-02-01T04:02:25;16.50;;;8.60;;
28459;SDS011;32528;45.712;9.192;2023-02-01T04:04:25;17.10;;;8.35;;
28459;SDS011;32528;45.712;9.192;2023-02-01T04:06:29;23.10;;;10.48;;
28459;SDS011;32528;45.712;9.192;2023-02-01T04:08:34;17.55;;;9.57;;
28459;SDS011;32528;45.712;9.192;2023-02-01T04:10:35;15.18;;;8.82;;
28459;SDS011;32528;45.712;9.192;2023-02-01T04:12:35;17.13;;;8.55;;
28459;SDS011;32528;45.712;9.192;2023-02-01T04:14:36;14.82;;;9.18;;
28459;SDS011;32528;45.712;9.192;2023-02-01T04:16:37;23.80;;;8.90;;
28459;SDS011;32528;45.712;9.192;2023-02-01T04:18:38;19.40;;;9.05;;
28459;SDS011;32528;45.712;9.192;2023-02-01T04:20:39;23.58;;;9.45;;
28459;SDS011;32528;45.712;9.192;2023-02-01T04:22:39;20.40;;;8.93;;
28459;SDS011;32528;45.712;9.192;2023-02-01T04:24:40;19.63;;;9.05;;
28459;SDS011;32528;45.712;9.192;2023-02-01T04:26:41;16.20;;;8.25;;
28459;SDS011;32528;45.712;9.192;2023-02-01T04:28:44;16.45;;;7.43;;
28459;SDS011;32528;45.712;9.192;2023-02-01T04:30:47;15.02;;;7.97;;
28459;SDS011;32528;45.712;9.192;2023-02-01T04:32:48;15.70;;;8.10;;
28459;SDS011;32528;45.712;9.192;2023-02-01T04:34:49;13.43;;;7.85;;
28459;SDS011;32528;45.712;9.192;2023-02-01T04:36:50;16.75;;;8.95;;
28459;SDS011;32528;45.712;9.192;2023-02-01T04:38:51;18.88;;;8.68;;
28459;SDS011;32528;45.712;9.192;2023-02-01T04:40:52;17.63;;;7.57;;
28459;SDS011;32528;45.712;9.192;2023-02-01T04:42:53;20.63;;;10.07;;
28459;SDS011;32528;45.712;9.192;2023-02-01T04:44:54;19.52;;;8.30;;
28459;SDS011;32528;45.712;9.192;2023-02-01T04:46:55;24.67;;;9.75;;
28459;SDS011;32528;45.712;9.192;2023-02-01T04:48:56;15.98;;;8.30;;
28459;SDS011;32528;45.712;9.192;2023-02-01T04:50:56;20.90;;;8.98;;
28459;SDS011;32528;45.712;9.192;2023-02-01T04:52:57;18.15;;;9.63;;
28459;SDS011;32528;45.712;9.192;2023-02-01T04:54:58;26.08;;;9.07;;
28459;SDS011;32528;45.712;9.192;2023-02-01T04:57:00;19.67;;;8.23;;
28459;SDS011;32528;45.712;9.192;2023-02-01T04:59:01;15.10;;;7.82;;
28459;SDS011;32528;45.712;9.192;2023-02-01T05:01:04;19.67;;;8.60;;
28459;SDS011;32528;45.712;9.192;2023-02-01T05:13:32;13.05;;;6.95;;
28459;SDS011;32528;45.712;9.192;2023-02-01T05:15:50;18.05;;;8.88;;
28459;SDS011;32528;45.712;9.192;2023-02-01T05:17:50;15.55;;;7.95;;
28459;SDS011;32528;45.712;9.192;2023-02-01T05:19:51;20.00;;;9.02;;
28459;SDS011;32528;45.712;9.192;2023-02-01T05:21:52;21.65;;;8.43;;
28459;SDS011;32528;45.712;9.192;2023-02-01T05:23:53;12.48;;;7.72;;
28459;SDS011;32528;45.712;9.192;2023-02-01T05:26:12;12.20;;;7.50;;
28459;SDS011;32528;45.712;9.192;2023-02-01T05:28:13;16.00;;;6.90;;
28459;SDS011;32528;45.712;9.192;2023-02-01T05:30:14;15.82;;;7.88;;
28459;SDS011;32528;45.712;9.192;2023-02-01T05:32:14;19.38;;;8.90;;
28459;SDS011;32528;45.712;9.192;2023-02-01T05:34:15;17.15;;;10.50;;
28459;SDS011;32528;45.712;9.192;2023-02-01T05:36:17;13.15;;;6.72;;
28459;SDS011;32528;45.712;9.192;2023-02-01T05:38:18;21.75;;;7.70;;
28459;SDS011;32528;45.712;9.192;2023-02-01T05:40:18;17.23;;;8.00;;
28459;SDS011;32528;45.712;9.192;2023-02-01T05:44:20;16.42;;;7.40;;
28459;SDS011;32528;45.712;9.192;2023-02-01T05:46:21;17.75;;;8.20;;
28459;SDS011;32528;45.712;9.192;2023-02-01T05:48:21;12.68;;;7.40;;
28459;SDS011;32528;45.712;9.192;2023-02-01T05:50:22;13.25;;;7.28;;
28459;SDS011;32528;45.712;9.192;2023-02-01T05:52:30;12.60;;;7.40;;
28459;SDS011;32528;45.712;9.192;2023-02-01T05:54:31;12.30;;;6.45;;
28459;SDS011;32528;45.712;9.192;2023-02-01T05:56:32;15.52;;;6.75;;
28459;SDS011;32528;45.712;9.192;2023-02-01T05:58:34;16.73;;;8.63;;
28459;SDS011;32528;45.712;9.192;2023-02-01T06:00:34;29.85;;;7.57;;
28459;SDS011;32528;45.712;9.192;2023-02-01T06:02:35;16.52;;;6.10;;
28459;SDS011;32528;45.712;9.192;2023-02-01T06:04:36;18.08;;;8.50;;
28459;SDS011;32528;45.712;9.192;2023-02-01T06:06:37;13.07;;;7.03;;
28459;SDS011;32528;45.712;9.192;2023-02-01T06:08:37;16.38;;;7.47;;
28459;SDS011;32528;45.712;9.192;2023-02-01T06:10:40;13.95;;;7.00;;
28459;SDS011;32528;45.712;9.192;2023-02-01T06:12:41;14.65;;;7.30;;
28459;SDS011;32528;45.712;9.192;2023-02-01T06:14:41;25.05;;;8.32;;
28459;SDS011;32528;45.712;9.192;2023-02-01T06:16:44;15.50;;;7.30;;
28459;SDS011;32528;45.712;9.192;2023-02-01T06:18:46;19.33;;;8.73;;
28459;SDS011;32528;45.712;9.192;2023-02-01T06:20:57;22.75;;;7.40;;
28459;SDS011;32528;45.712;9.192;2023-02-01T06:23:00;14.93;;;7.90;;
28459;SDS011;32528;45.712;9.192;2023-02-01T06:25:03;17.02;;;8.30;;
28459;SDS011;32528;45.712;9.192;2023-02-01T06:27:04;10.65;;;6.43;;
28459;SDS011;32528;45.712;9.192;2023-02-01T06:29:14;15.80;;;7.93;;
28459;SDS011;32528;45.712;9.192;2023-02-01T06:31:15;13.10;;;6.57;;
28459;SDS011;32528;45.712;9.192;2023-02-01T06:33:17;13.60;;;8.40;;
28459;SDS011;32528;45.712;9.192;2023-02-01T06:35:17;13.55;;;7.88;;
28459;SDS011;32528;45.712;9.192;2023-02-01T06:37:19;13.43;;;7.35;;
28459;SDS011;32528;45.712;9.192;2023-02-01T06:39:20;16.98;;;8.68;;
28459;SDS011;32528;45.712;9.192;2023-02-01T06:41:22;28.05;;;7.57;;
28459;SDS011;32528;45.712;9.192;2023-02-01T06:43:24;16.27;;;8.48;;
28459;SDS011;32528;45.712;9.192;2023-02-01T06:45:26;18.92;;;9.45;;
28459;SDS011;32528;45.712;9.192;2023-02-01T06:47:26;19.27;;;8.35;;
28459;SDS011;32528;45.712;9.192;2023-02-01T06:49:27;15.98;;;7.97;;
28459;SDS011;32528;45.712;9.192;2023-02-01T06:51:28;15.18;;;7.43;;
28459;SDS011;32528;45.712;9.192;2023-02-01T06:53:29;19.20;;;9.40;;
28459;SDS011;32528;45.712;9.192;2023-02-01T06:55:31;24.02;;;12.20;;
28459;SDS011;32528;45.712;9.192;2023-02-01T06:57:32;20.80;;;12.07;;
28459;SDS011;32528;45.712;9.192;2023-02-01T06:59:36;25.15;;;14.45;;
28459;SDS011;32528;45.712;9.192;2023-02-01T07:01:37;32.38;;;15.25;;
28459;SDS011;32528;45.712;9.192;2023-02-01T07:03:38;25.00;;;15.93;;
28459;SDS011;32528;45.712;9.192;2023-02-01T07:05:39;27.95;;;18.05;;
28459;SDS011;32528;45.712;9.192;2023-02-01T07:07:40;28.45;;;18.98;;
28459;SDS011;32528;45.712;9.192;2023-02-01T07:09:41;33.45;;;18.30;;
28459;SDS011;32528;45.712;9.192;2023-02-01T07:11:41;35.67;;;22.35;;
28459;SDS011;32528;45.712;9.192;2023-02-01T07:13:44;33.60;;;20.80;;
28459;SDS011;32528;45.712;9.192;2023-02-01T07:15:45;30.13;;;17.70;;
28459;SDS011;32528;45.712;9.192;2023-02-01T07:17:49;33.20;;;18.42;;
28459;SDS011;32528;45.712;9.192;2023-02-01T07:19:50;35.92;;;18.25;;
28459;SDS011;32528;45.712;9.192;2023-02-01T07:21:50;29.42;;;17.08;;
28459;SDS011;32528;45.712;9.192;2023-02-01T07:23:51;24.30;;;15.20;;
28459;SDS011;32528;45.712;9.192;2023-02-01T07:25:59;24.58;;;13.23;;
28459;SDS011;32528;45.712;9.192;2023-02-01T07:28:03;23.50;;;12.07;;
28459;SDS011;32528;45.712;9.192;2023-02-01T07:30:04;29.73;;;14.90;;
28459;SDS011;32528;45.712;9.192;2023-02-01T07:32:05;42.17;;;13.20;;
28459;SDS011;32528;45.712;9.192;2023-02-01T07:34:06;19.67;;;10.98;;
28459;SDS011;32528;45.712;9.192;2023-02-01T07:36:07;33.92;;;14.25;;
28459;SDS011;32528;45.712;9.192;2023-02-01T07:38:12;26.67;;;11.57;;
28459;SDS011;32528;45.712;9.192;2023-02-01T07:40:13;19.90;;;10.63;;
28459;SDS011;32528;45.712;9.192;2023-02-01T07:42:15;26.40;;;10.00;;
28459;SDS011;32528;45.712;9.192;2023-02-01T07:44:16;23.73;;;11.90;;
28459;SDS011;32528;45.712;9.192;2023-02-01T07:46:22;22.92;;;13.05;;
28459;SDS011;32528;45.712;9.192;2023-02-01T07:48:24;28.48;;;11.73;;
28459;SDS011;32528;45.712;9.192;2023-02-01T07:50:26;21.65;;;11.38;;
28459;SDS011;32528;45.712;9.192;2023-02-01T07:52:28;28.25;;;12.07;;
28459;SDS011;32528;45.712;9.192;2023-02-01T07:54:29;23.60;;;14.15;;
28459;SDS011;32528;45.712;9.192;2023-02-01T07:56:30;28.55;;;12.88;;
28459;SDS011;32528;45.712;9.192;2023-02-01T07:58:30;56.33;;;21.27;;
28459;SDS011;32528;45.712;9.192;2023-02-01T08:02:50;46.47;;;21.07;;
28459;SDS011;32528;45.712;9.192;2023-02-01T08:04:52;38.17;;;23.38;;
28459;SDS011;32528;45.712;9.192;2023-02-01T08:06:53;34.17;;;19.40;;
28459;SDS011;32528;45.712;9.192;2023-02-01T08:08:54;23.45;;;12.32;;
28459;SDS011;32528;45.712;9.192;2023-02-01T08:10:57;28.88;;;13.65;;
28459;SDS011;32528;45.712;9.192;2023-02-01T08:12:59;17.65;;;10.63;;
28459;SDS011;32528;45.712;9.192;2023-02-01T08:15:00;32.50;;;11.82;;
28459;SDS011;32528;45.712;9.192;2023-02-01T08:17:01;26.73;;;14.23;;
28459;SDS011;32528;45.712;9.192;2023-02-01T08:19:02;29.73;;;14.98;;
28459;SDS011;32528;45.712;9.192;2023-02-01T08:21:04;22.98;;;11.13;;
28459;SDS011;32528;45.712;9.192;2023-02-01T08:23:07;21.00;;;11.88;;
28459;SDS011;32528;45.712;9.192;2023-02-01T08:25:08;30.42;;;12.55;;
28459;SDS011;32528;45.712;9.192;2023-02-01T08:27:09;24.25;;;11.30;;
28459;SDS011;32528;45.712;9.192;2023-02-01T08:29:11;26.20;;;10.90;;
28459;SDS011;32528;45.712;9.192;2023-02-01T08:31:15;26.33;;;13.10;;
28459;SDS011;32528;45.712;9.192;2023-02-01T08:33:18;23.88;;;13.20;;
28459;SDS011;32528;45.712;9.192;2023-02-01T08:35:18;26.73;;;11.40;;
28459;SDS011;32528;45.712;9.192;2023-02-01T08:37:19;25.40;;;10.32;;
28459;SDS011;32528;45.712;9.192;2023-02-01T08:39:20;17.98;;;9.45;;
28459;SDS011;32528;45.712;9.192;2023-02-01T08:41:25;31.15;;;10.10;;
28459;SDS011;32528;45.712;9.192;2023-02-01T08:43:29;23.23;;;10.98;;
28459;SDS011;32528;45.712;9.192;2023-02-01T08:45:29;23.58;;;9.38;;
28459;SDS011;32528;45.712;9.192;2023-02-01T08:47:30;26.60;;;9.68;;
28459;SDS011;32528;45.712;9.192;2023-02-01T08:49:31;34.88;;;12.18;;
28459;SDS011;32528;45.712;9.192;2023-02-01T08:51:32;29.27;;;13.45;;
28459;SDS011;32528;45.712;9.192;2023-02-01T08:53:33;26.13;;;11.48;;
28459;SDS011;32528;45.712;9.192;2023-02-01T08:55:35;29.77;;;13.32;;
28459;SDS011;32528;45.712;9.192;2023-02-01T08:57:36;32.13;;;11.80;;
28459;SDS011;32528;45.712;9.192;2023-02-01T08:59:37;29.40;;;11.25;;
28459;SDS011;32528;45.712;9.192;2023-02-01T09:01:38;33.65;;;12.38;;
28459;SDS011;32528;45.712;9.192;2023-02-01T09:03:39;40.53;;;13.05;;
28459;SDS011;32528;45.712;9.192;2023-02-01T09:05:40;42.00;;;12.13;;
28459;SDS011;32528;45.712;9.192;2023-02-01T09:07:41;33.40;;;11.07;;
28459;SDS011;32528;45.712;9.192;2023-02-01T09:09:42;38.63;;;12.35;;
28459;SDS011;32528;45.712;9.192;2023-02-01T09:11:44;47.63;;;12.70;;
28459;SDS011;32528;45.712;9.192;2023-02-01T09:13:45;31.08;;;13.80;;
28459;SDS011;32528;45.712;9.192;2023-02-01T09:15:46;23.77;;;13.40;;
28459;SDS011;32528;45.712;9.192;2023-02-01T09:17:50;20.77;;;11.48;;
28459;SDS011;32528;45.712;9.192;2023-02-01T09:19:51;28.23;;;9.15;;
28459;SDS011;32528;45.712;9.192;2023-02-01T09:21:52;27.90;;;9.68;;
28459;SDS011;32528;45.712;9.192;2023-02-01T09:23:52;39.47;;;12.70;;
28459;SDS011;32528;45.712;9.192;2023-02-01T09:25:53;41.35;;;8.35;;
28459;SDS011;32528;45.712;9.192;2023-02-01T09:27:54;40.40;;;11.13;;
28459;SDS011;32528;45.712;9.192;2023-02-01T09:29:55;57.15;;;13.93;;
28459;SDS011;32528;45.712;9.192;2023-02-01T09:31:55;52.75;;;11.43;;
28459;SDS011;32528;45.712;9.192;2023-02-01T09:33:57;15.90;;;6.97;;
28459;SDS011;32528;45.712;9.192;2023-02-01T09:35:59;11.55;;;5.03;;
28459;SDS011;32528;45.712;9.192;2023-02-01T09:38:01;14.25;;;6.63;;
28459;SDS011;32528;45.712;9.192;2023-02-01T09:40:02;9.63;;;4.75;;
28459;SDS011;32528;45.712;9.192;2023-02-01T09:46:49;7.88;;;3.42;;
28459;SDS011;32528;45.712;9.192;2023-02-01T15:32:36;30.02;;;13.00;;
28459;SDS011;32528;45.712;9.192;2023-02-01T15:36:49;26.73;;;11.25;;
28459;SDS011;32528;45.712;9.192;2023-02-01T15:41:19;37.38;;;14.27;;
28459;SDS011;32528;45.712;9.192;2023-02-01T15:43:21;30.33;;;14.90;;
28459;SDS011;32528;45.712;9.192;2023-02-01T15:45:26;34.25;;;14.38;;
28459;SDS011;32528;45.712;9.192;2023-02-01T15:47:32;35.08;;;15.75;;
28459;SDS011;32528;45.712;9.192;2023-02-01T15:49:36;30.17;;;12.52;;
28459;SDS011;32528;45.712;9.192;2023-02-01T15:51:39;22.65;;;12.90;;
28459;SDS011;32528;45.712;9.192;2023-02-01T15:53:46;29.63;;;12.50;;
28459;SDS011;32528;45.712;9.192;2023-02-01T16:10:44;33.38;;;11.23;;
28459;SDS011;32528;45.712;9.192;2023-02-01T16:12:46;30.50;;;13.25;;
28459;SDS011;32528;45.712;9.192;2023-02-01T16:16:48;20.95;;;10.43;;
28459;SDS011;32528;45.712;9.192;2023-02-01T16:18:49;37.30;;;12.02;;
28459;SDS011;32528;45.712;9.192;2023-02-01T16:20:50;29.60;;;11.60;;
28459;SDS011;32528;45.712;9.192;2023-02-01T16:22:50;105.93;;;53.78;;
28459;SDS011;32528;45.712;9.192;2023-02-01T16:24:52;84.00;;;43.85;;
28459;SDS011;32528;45.712;9.192;2023-02-01T16:26:53;47.28;;;24.20;;
28459;SDS011;32528;45.712;9.192;2023-02-01T16:28:53;31.27;;;14.95;;
28459;SDS011;32528;45.712;9.192;2023-02-01T16:30:56;24.35;;;12.73;;
28459;SDS011;32528;45.712;9.192;2023-02-01T16:32:58;25.25;;;12.38;;
28459;SDS011;32528;45.712;9.192;2023-02-01T16:35:02;40.75;;;13.10;;
28459;SDS011;32528;45.712;9.192;2023-02-01T16:37:05;28.25;;;13.95;;
28459;SDS011;32528;45.712;9.192;2023-02-01T16:39:07;30.42;;;13.73;;
28459;SDS011;32528;45.712;9.192;2023-02-01T16:41:14;27.95;;;13.15;;
28459;SDS011;32528;45.712;9.192;2023-02-01T16:43:18;26.52;;;11.77;;
28459;SDS011;32528;45.712;9.192;2023-02-01T16:45:21;31.17;;;12.07;;
28459;SDS011;32528;45.712;9.192;2023-02-01T16:47:22;26.50;;;12.15;;
28459;SDS011;32528;45.712;9.192;2023-02-01T16:49:24;26.50;;;12.75;;
28459;SDS011;32528;45.712;9.192;2023-02-01T16:51:26;29.95;;;11.75;;
28459;SDS011;32528;45.712;9.192;2023-02-01T16:53:32;22.80;;;10.70;;
28459;SDS011;32528;45.712;9.192;2023-02-01T16:55:32;31.77;;;11.60;;
28459;SDS011;32528;45.712;9.192;2023-02-01T16:57:35;25.65;;;12.45;;
28459;SDS011;32528;45.712;9.192;2023-02-01T16:59:35;32.92;;;16.67;;
28459;SDS011;32528;45.712;9.192;2023-02-01T17:03:41;25.25;;;11.77;;
28459;SDS011;32528;45.712;9.192;2023-02-01T17:05:47;24.80;;;12.02;;
28459;SDS011;32528;45.712;9.192;2023-02-01T17:09:52;49.53;;;24.98;;
28459;SDS011;32528;45.712;9.192;2023-02-01T17:11:53;51.13;;;25.75;;
28459;SDS011;32528;45.712;9.192;2023-02-01T17:13:56;48.17;;;24.92;;
28459;SDS011;32528;45.712;9.192;2023-02-01T17:16:02;42.00;;;19.50;;
28459;SDS011;32528;45.712;9.192;2023-02-01T17:18:05;36.45;;;15.18;;
28459;SDS011;32528;45.712;9.192;2023-02-01T17:20:20;32.05;;;13.23;;
28459;SDS011;32528;45.712;9.192;2023-02-01T17:22:23;29.58;;;11.48;;
28459;SDS011;32528;45.712;9.192;2023-02-01T17:24:24;28.30;;;11.93;;
28459;SDS011;32528;45.712;9.192;2023-02-01T17:26:27;29.85;;;12.90;;
28459;SDS011;32528;45.712;9.192;2023-02-01T17:28:28;32.78;;;11.27;;
28459;SDS011;32528;45.712;9.192;2023-02-01T17:30:30;45.35;;;11.23;;
28459;SDS011;32528;45.712;9.192;2023-02-01T17:32:31;29.08;;;13.55;;
28459;SDS011;32528;45.712;9.192;2023-02-01T17:34:32;24.65;;;11.18;;
28459;SDS011;32528;45.712;9.192;2023-02-01T17:36:33;35.00;;;12.20;;
28459;SDS011;32528;45.712;9.192;2023-02-01T17:38:35;22.15;;;10.73;;
28459;SDS011;32528;45.712;9.192;2023-02-01T17:40:36;26.65;;;12.45;;
28459;SDS011;32528;45.712;9.192;2023-02-01T17:42:38;24.55;;;11.23;;
28459;SDS011;32528;45.712;9.192;2023-02-01T17:44:39;29.45;;;12.30;;
28459;SDS011;32528;45.712;9.192;2023-02-01T17:46:40;24.90;;;12.70;;
28459;SDS011;32528;45.712;9.192;2023-02-01T17:48:41;20.67;;;11.25;;
28459;SDS011;32528;45.712;9.192;2023-02-01T17:50:42;36.95;;;14.48;;
28459;SDS011;32528;45.712;9.192;2023-02-01T17:52:43;39.70;;;20.17;;
28459;SDS011;32528;45.712;9.192;2023-02-01T17:54:44;25.83;;;13.52;;
28459;SDS011;32528;45.712;9.192;2023-02-01T17:56:46;33.92;;;13.35;;
28459;SDS011;32528;45.712;9.192;2023-02-01T17:58:48;30.88;;;16.23;;
28459;SDS011;32528;45.712;9.192;2023-02-01T18:00:49;26.23;;;13.38;;
28459;SDS011;32528;45.712;9.192;2023-02-01T18:02:50;34.88;;;13.43;;
28459;SDS011;32528;45.712;9.192;2023-02-01T18:04:51;25.25;;;11.27;;
28459;SDS011;32528;45.712;9.192;2023-02-01T18:06:51;38.25;;;17.67;;
28459;SDS011;32528;45.712;9.192;2023-02-01T18:08:52;29.17;;;12.30;;
28459;SDS011;32528;45.712;9.192;2023-02-01T18:10:54;25.30;;;12.57;;
28459;SDS011;32528;45.712;9.192;2023-02-01T18:13:01;38.75;;;16.70;;
28459;SDS011;32528;45.712;9.192;2023-02-01T18:15:36;50.88;;;28.15;;
28459;SDS011;32528;45.712;9.192;2023-02-01T18:17:30;31.75;;;18.05;;
28459;SDS011;32528;45.712;9.192;2023-02-01T18:19:31;32.80;;;21.40;;
28459;SDS011;32528;45.712;9.192;2023-02-01T18:21:35;40.55;;;22.67;;
28459;SDS011;32528;45.712;9.192;2023-02-01T18:23:39;35.92;;;15.70;;
28459;SDS011;32528;45.712;9.192;2023-02-01T18:25:39;49.80;;;21.88;;
28459;SDS011;32528;45.712;9.192;2023-02-01T18:27:42;31.83;;;16.48;;
28459;SDS011;32528;45.712;9.192;2023-02-01T18:29:43;33.15;;;15.13;;
28459;SDS011;32528;45.712;9.192;2023-02-01T18:31:46;31.85;;;14.68;;
28459;SDS011;32528;45.712;9.192;2023-02-01T18:33:49;25.70;;;13.18;;
28459;SDS011;32528;45.712;9.192;2023-02-01T18:35:51;30.67;;;14.45;;
28459;SDS011;32528;45.712;9.192;2023-02-01T18:37:52;27.50;;;14.57;;
28459;SDS011;32528;45.712;9.192;2023-02-01T18:39:55;28.40;;;13.00;;
28459;SDS011;32528;45.712;9.192;2023-02-01T18:41:56;39.30;;;16.10;;
28459;SDS011;32528;45.712;9.192;2023-02-01T18:43:58;42.08;;;20.25;;
28459;SDS011;32528;45.712;9.192;2023-02-01T18:45:59;57.40;;;14.77;;
28459;SDS011;32528;45.712;9.192;2023-02-01T18:48:00;39.78;;;15.88;;
28459;SDS011;32528;45.712;9.192;2023-02-01T18:50:01;28.13;;;13.45;;
28459;SDS011;32528;45.712;9.192;2023-02-01T18:52:01;34.85;;;16.95;;
28459;SDS011;32528;45.712;9.192;2023-02-01T18:54:02;49.92;;;24.20;;
28459;SDS011;32528;45.712;9.192;2023-02-01T18:56:03;44.38;;;24.27;;
28459;SDS011;32528;45.712;9.192;2023-02-01T18:58:04;32.05;;;17.25;;
28459;SDS011;32528;45.712;9.192;2023-02-01T19:00:06;35.47;;;16.45;;
28459;SDS011;32528;45.712;9.192;2023-02-01T19:02:10;35.40;;;18.55;;
28459;SDS011;32528;45.712;9.192;2023-02-01T19:04:12;26.52;;;14.75;;
28459;SDS011;32528;45.712;9.192;2023-02-01T19:06:14;33.40;;;17.05;;